sensor_id;sensor_type;location;lat;lon;timestamp;P1;durP1;ratioP1;P2;durP2;ratioP2
5297;SDS011;14738;42.668;23.250;2023-04-01T00:00:23;14.20;;;8.53;;
5297;SDS011;14738;42.668;23.250;2023-04-01T00:02:49;12.70;;;8.90;;
5297;SDS011;14738;42.668;23.250;2023-04-01T00:05:14;14.43;;;9.50;;
5297;SDS011;14738;42.668;23.250;2023-04-01T00:07:41;16.03;;;9.90;;
5297;SDS011;14738;42.668;23.250;2023-04-01T00:10:08;20.70;;;9.87;;
5297;SDS011;14738;42.668;23.250;2023-04-01T00:12:35;16.10;;;10.30;;
5297;SDS011;14738;42.668;23.250;2023-04-01T00:15:02;18.00;;;10.63;;
5297;SDS011;14738;42.668;23.250;2023-04-01T00:17:28;13.70;;;11.30;;
5297;SDS011;14738;42.668;23.250;2023-04-01T00:19:56;26.00;;;12.40;;
5297;SDS011;14738;42.668;23.250;2023-04-01T00:22:23;20.67;;;12.50;;
5297;SDS011;14738;42.668;23.250;2023-04-01T00:24:49;18.73;;;14.37;;
5297;SDS011;14738;42.668;23.250;2023-04-01T00:27:15;21.27;;;14.30;;
5297;SDS011;14738;42.668;23.250;2023-04-01T00:29:44;19.27;;;14.33;;
5297;SDS011;14738;42.668;23.250;2023-04-01T00:32:11;20.67;;;15.00;;
5297;SDS011;14738;42.668;23.250;2023-04-01T00:34:37;25.40;;;14.93;;
5297;SDS011;14738;42.668;23.250;2023-04-01T00:37:03;21.30;;;15.80;;
5297;SDS011;14738;42.668;23.250;2023-04-01T00:39:29;24.57;;;17.10;;
5297;SDS011;14738;42.668;23.250;2023-04-01T00:41:56;25.37;;;16.20;;
5297;SDS011;14738;42.668;23.250;2023-04-01T00:44:40;24.37;;;16.70;;
5297;SDS011;14738;42.668;23.250;2023-04-01T00:47:05;25.33;;;17.20;;
5297;SDS011;14738;42.668;23.250;2023-04-01T00:49:33;19.97;;;15.50;;
5297;SDS011;14738;42.668;23.250;2023-04-01T00:52:02;19.27;;;14.60;;
5297;SDS011;14738;42.668;23.250;2023-04-01T00:54:30;22.47;;;16.70;;
5297;SDS011;14738;42.668;23.250;2023-04-01T00:56:58;23.67;;;16.10;;
5297;SDS011;14738;42.668;23.250;2023-04-01T00:59:34;20.83;;;16.27;;
5297;SDS011;14738;42.668;23.250;2023-04-01T01:02:05;22.47;;;15.30;;
5297;SDS011;14738;42.668;23.250;2023-04-01T01:04:33;21.00;;;15.80;;
5297;SDS011;14738;42.668;23.250;2023-04-01T01:12:45;21.40;;;15.37;;
5297;SDS011;14738;42.668;23.250;2023-04-01T01:15:46;20.77;;;13.40;;
5297;SDS011;14738;42.668;23.250;2023-04-01T01:32:07;17.47;;;8.50;;
5297;SDS011;14738;42.668;23.250;2023-04-01T01:37:10;10.00;;;7.90;;
5297;SDS011;14738;42.668;23.250;2023-04-01T01:39:42;12.63;;;8.90;;
5297;SDS011;14738;42.668;23.250;2023-04-01T01:42:11;10.00;;;7.67;;
5297;SDS011;14738;42.668;23.250;2023-04-01T01:44:40;11.90;;;8.50;;
5297;SDS011;14738;42.668;23.250;2023-04-01T01:47:09;7.23;;;6.53;;
5297;SDS011;14738;42.668;23.250;2023-04-01T01:49:35;10.27;;;6.57;;
5297;SDS011;14738;42.668;23.250;2023-04-01T01:52:04;10.03;;;6.60;;
5297;SDS011;14738;42.668;23.250;2023-04-01T01:54:30;6.50;;;5.90;;
5297;SDS011;14738;42.668;23.250;2023-04-01T01:56:57;6.80;;;6.10;;
5297;SDS011;14738;42.668;23.250;2023-04-01T01:59:33;10.90;;;6.20;;
5297;SDS011;14738;42.668;23.250;2023-04-01T02:02:02;6.33;;;5.73;;
5297;SDS011;14738;42.668;23.250;2023-04-01T02:04:34;10.37;;;5.80;;
5297;SDS011;14738;42.668;23.250;2023-04-01T02:07:02;10.37;;;6.10;;
5297;SDS011;14738;42.668;23.250;2023-04-01T02:09:30;10.23;;;6.43;;
5297;SDS011;14738;42.668;23.250;2023-04-01T02:12:01;9.50;;;6.87;;
5297;SDS011;14738;42.668;23.250;2023-04-01T02:14:38;10.83;;;5.87;;
5297;SDS011;14738;42.668;23.250;2023-04-01T02:17:09;8.43;;;6.00;;
5297;SDS011;14738;42.668;23.250;2023-04-01T02:19:40;8.23;;;6.10;;
5297;SDS011;14738;42.668;23.250;2023-04-01T02:22:14;7.90;;;6.50;;
5297;SDS011;14738;42.668;23.250;2023-04-01T02:24:50;10.60;;;9.50;;
5297;SDS011;14738;42.668;23.250;2023-04-01T02:27:20;12.50;;;7.10;;
5297;SDS011;14738;42.668;23.250;2023-04-01T02:29:46;7.93;;;6.13;;
5297;SDS011;14738;42.668;23.250;2023-04-01T02:32:11;7.30;;;6.37;;
5297;SDS011;14738;42.668;23.250;2023-04-01T02:34:38;8.47;;;6.17;;
5297;SDS011;14738;42.668;23.250;2023-04-01T02:37:04;9.33;;;6.20;;
5297;SDS011;14738;42.668;23.250;2023-04-01T02:39:30;6.47;;;5.40;;
5297;SDS011;14738;42.668;23.250;2023-04-01T02:41:55;13.00;;;6.73;;
5297;SDS011;14738;42.668;23.250;2023-04-01T02:44:21;12.80;;;8.90;;
5297;SDS011;14738;42.668;23.250;2023-04-01T02:46:46;14.07;;;7.27;;
5297;SDS011;14738;42.668;23.250;2023-04-01T02:49:12;5.93;;;5.40;;
5297;SDS011;14738;42.668;23.250;2023-04-01T02:51:37;4.73;;;3.77;;
5297;SDS011;14738;42.668;23.250;2023-04-01T02:54:03;5.87;;;5.13;;
5297;SDS011;14738;42.668;23.250;2023-04-01T02:56:28;5.13;;;4.30;;
5297;SDS011;14738;42.668;23.250;2023-04-01T02:58:54;6.50;;;4.30;;
5297;SDS011;14738;42.668;23.250;2023-04-01T03:01:20;7.07;;;4.50;;
5297;SDS011;14738;42.668;23.250;2023-04-01T03:03:45;5.93;;;5.37;;
5297;SDS011;14738;42.668;23.250;2023-04-01T03:06:12;5.90;;;5.30;;
5297;SDS011;14738;42.668;23.250;2023-04-01T03:08:39;6.50;;;5.17;;
5297;SDS011;14738;42.668;23.250;2023-04-01T03:11:05;8.10;;;5.67;;
5297;SDS011;14738;42.668;23.250;2023-04-01T03:13:31;5.43;;;4.87;;
5297;SDS011;14738;42.668;23.250;2023-04-01T03:15:56;5.83;;;4.80;;
5297;SDS011;14738;42.668;23.250;2023-04-01T03:18:22;6.80;;;5.70;;
5297;SDS011;14738;42.668;23.250;2023-04-01T03:20:47;18.47;;;5.43;;
5297;SDS011;14738;42.668;23.250;2023-04-01T03:23:13;8.27;;;5.67;;
5297;SDS011;14738;42.668;23.250;2023-04-01T03:25:38;7.30;;;5.00;;
5297;SDS011;14738;42.668;23.250;2023-04-01T03:28:04;2.77;;;2.50;;
5297;SDS011;14738;42.668;23.250;2023-04-01T03:30:30;2.50;;;1.80;;
5297;SDS011;14738;42.668;23.250;2023-04-01T03:32:56;5.27;;;2.03;;
5297;SDS011;14738;42.668;23.250;2023-04-01T03:35:22;2.93;;;2.00;;
5297;SDS011;14738;42.668;23.250;2023-04-01T03:37:48;1.70;;;1.60;;
5297;SDS011;14738;42.668;23.250;2023-04-01T03:40:15;3.23;;;2.17;;
5297;SDS011;14738;42.668;23.250;2023-04-01T03:42:41;1.83;;;1.73;;
5297;SDS011;14738;42.668;23.250;2023-04-01T03:45:06;3.00;;;1.70;;
5297;SDS011;14738;42.668;23.250;2023-04-01T03:47:32;4.23;;;2.13;;
5297;SDS011;14738;42.668;23.250;2023-04-01T03:49:57;1.87;;;1.70;;
5297;SDS011;14738;42.668;23.250;2023-04-01T03:52:22;4.90;;;2.10;;
5297;SDS011;14738;42.668;23.250;2023-04-01T03:54:48;4.20;;;1.97;;
5297;SDS011;14738;42.668;23.250;2023-04-01T03:57:13;5.43;;;3.27;;
5297;SDS011;14738;42.668;23.250;2023-04-01T03:59:39;5.57;;;3.03;;
5297;SDS011;14738;42.668;23.250;2023-04-01T04:02:05;7.00;;;4.40;;
5297;SDS011;14738;42.668;23.250;2023-04-01T04:04:30;6.60;;;4.67;;
5297;SDS011;14738;42.668;23.250;2023-04-01T04:06:55;9.07;;;5.40;;
5297;SDS011;14738;42.668;23.250;2023-04-01T04:09:21;6.40;;;5.57;;
5297;SDS011;14738;42.668;23.250;2023-04-01T04:11:47;8.03;;;5.50;;
5297;SDS011;14738;42.668;23.250;2023-04-01T04:14:13;5.70;;;5.10;;
5297;SDS011;14738;42.668;23.250;2023-04-01T04:16:38;6.17;;;5.27;;
5297;SDS011;14738;42.668;23.250;2023-04-01T04:19:03;5.80;;;4.90;;
5297;SDS011;14738;42.668;23.250;2023-04-01T04:21:29;7.70;;;5.10;;
5297;SDS011;14738;42.668;23.250;2023-04-01T04:23:55;8.93;;;5.40;;
5297;SDS011;14738;42.668;23.250;2023-04-01T04:26:20;9.43;;;5.17;;
5297;SDS011;14738;42.668;23.250;2023-04-01T04:28:46;5.63;;;5.13;;
5297;SDS011;14738;42.668;23.250;2023-04-01T04:31:11;7.20;;;5.13;;
5297;SDS011;14738;42.668;23.250;2023-04-01T04:33:42;5.07;;;4.57;;
5297;SDS011;14738;42.668;23.250;2023-04-01T04:36:08;6.03;;;4.77;;
5297;SDS011;14738;42.668;23.250;2023-04-01T04:38:33;11.43;;;6.57;;
5297;SDS011;14738;42.668;23.250;2023-04-01T04:40:59;11.40;;;7.60;;
5297;SDS011;14738;42.668;23.250;2023-04-01T04:43:24;6.63;;;6.03;;
5297;SDS011;14738;42.668;23.250;2023-04-01T04:45:50;10.80;;;7.33;;
5297;SDS011;14738;42.668;23.250;2023-04-01T04:48:16;13.60;;;8.70;;
5297;SDS011;14738;42.668;23.250;2023-04-01T04:50:44;11.60;;;8.37;;
5297;SDS011;14738;42.668;23.250;2023-04-01T04:53:13;13.13;;;9.10;;
5297;SDS011;14738;42.668;23.250;2023-04-01T04:55:43;14.70;;;9.70;;
5297;SDS011;14738;42.668;23.250;2023-04-01T04:58:13;15.53;;;9.57;;
5297;SDS011;14738;42.668;23.250;2023-04-01T05:00:38;15.13;;;10.27;;
5297;SDS011;14738;42.668;23.250;2023-04-01T05:03:04;13.10;;;9.43;;
5297;SDS011;14738;42.668;23.250;2023-04-01T05:05:30;13.27;;;9.40;;
5297;SDS011;14738;42.668;23.250;2023-04-01T05:07:55;14.07;;;9.70;;
5297;SDS011;14738;42.668;23.250;2023-04-01T05:10:20;18.33;;;12.00;;
5297;SDS011;14738;42.668;23.250;2023-04-01T05:12:46;17.00;;;11.97;;
5297;SDS011;14738;42.668;23.250;2023-04-01T05:15:11;15.40;;;11.17;;
5297;SDS011;14738;42.668;23.250;2023-04-01T05:17:37;16.20;;;11.20;;
5297;SDS011;14738;42.668;23.250;2023-04-01T05:20:02;13.43;;;10.13;;
5297;SDS011;14738;42.668;23.250;2023-04-01T05:22:29;13.43;;;10.10;;
5297;SDS011;14738;42.668;23.250;2023-04-01T05:24:54;15.47;;;11.77;;
5297;SDS011;14738;42.668;23.250;2023-04-01T05:27:20;16.00;;;10.97;;
5297;SDS011;14738;42.668;23.250;2023-04-01T05:29:46;25.60;;;21.00;;
5297;SDS011;14738;42.668;23.250;2023-04-01T05:32:11;25.57;;;19.00;;
5297;SDS011;14738;42.668;23.250;2023-04-01T05:34:36;19.83;;;14.57;;
5297;SDS011;14738;42.668;23.250;2023-04-01T05:37:02;16.50;;;13.00;;
5297;SDS011;14738;42.668;23.250;2023-04-01T05:39:27;16.50;;;12.20;;
5297;SDS011;14738;42.668;23.250;2023-04-01T05:41:53;15.70;;;12.20;;
5297;SDS011;14738;42.668;23.250;2023-04-01T05:44:18;13.37;;;9.80;;
5297;SDS011;14738;42.668;23.250;2023-04-01T05:46:44;12.10;;;10.53;;
5297;SDS011;14738;42.668;23.250;2023-04-01T05:49:09;12.03;;;9.13;;
5297;SDS011;14738;42.668;23.250;2023-04-01T05:51:35;9.83;;;7.87;;
5297;SDS011;14738;42.668;23.250;2023-04-01T05:54:00;12.20;;;8.70;;
5297;SDS011;14738;42.668;23.250;2023-04-01T05:56:26;10.50;;;7.80;;
5297;SDS011;14738;42.668;23.250;2023-04-01T05:58:52;10.70;;;9.60;;
5297;SDS011;14738;42.668;23.250;2023-04-01T06:01:19;9.77;;;7.83;;
5297;SDS011;14738;42.668;23.250;2023-04-01T06:03:44;10.63;;;8.20;;
5297;SDS011;14738;42.668;23.250;2023-04-01T06:06:13;15.40;;;9.20;;
5297;SDS011;14738;42.668;23.250;2023-04-01T06:08:40;9.40;;;8.50;;
5297;SDS011;14738;42.668;23.250;2023-04-01T06:22:37;8.30;;;6.30;;
5297;SDS011;14738;42.668;23.250;2023-04-01T06:25:14;9.73;;;7.53;;
5297;SDS011;14738;42.668;23.250;2023-04-01T06:28:01;14.07;;;9.27;;
5297;SDS011;14738;42.668;23.250;2023-04-01T06:33:17;12.60;;;9.33;;
5297;SDS011;14738;42.668;23.250;2023-04-01T06:36:25;13.23;;;6.50;;
5297;SDS011;14738;42.668;23.250;2023-04-01T06:50:09;11.30;;;7.10;;
5297;SDS011;14738;42.668;23.250;2023-04-01T06:55:51;8.97;;;6.13;;
5297;SDS011;14738;42.668;23.250;2023-04-01T06:58:25;5.23;;;4.67;;
5297;SDS011;14738;42.668;23.250;2023-04-01T07:00:56;7.77;;;4.70;;
5297;SDS011;14738;42.668;23.250;2023-04-01T07:03:41;6.23;;;5.23;;
5297;SDS011;14738;42.668;23.250;2023-04-01T07:06:13;6.87;;;5.10;;
5297;SDS011;14738;42.668;23.250;2023-04-01T07:08:46;6.30;;;4.50;;
5297;SDS011;14738;42.668;23.250;2023-04-01T07:11:24;7.80;;;5.63;;
5297;SDS011;14738;42.668;23.250;2023-04-01T07:16:56;6.07;;;5.47;;
5297;SDS011;14738;42.668;23.250;2023-04-01T07:19:32;7.93;;;5.23;;
5297;SDS011;14738;42.668;23.250;2023-04-01T07:22:04;9.50;;;6.13;;
5297;SDS011;14738;42.668;23.250;2023-04-01T07:24:40;7.47;;;6.03;;
5297;SDS011;14738;42.668;23.250;2023-04-01T07:27:09;10.33;;;6.77;;
5297;SDS011;14738;42.668;23.250;2023-04-01T07:29:36;7.97;;;5.80;;
5297;SDS011;14738;42.668;23.250;2023-04-01T07:37:31;8.87;;;6.53;;
5297;SDS011;14738;42.668;23.250;2023-04-01T07:48:34;9.93;;;6.30;;
5297;SDS011;14738;42.668;23.250;2023-04-01T07:54:03;16.33;;;7.10;;
5297;SDS011;14738;42.668;23.250;2023-04-01T07:59:25;8.23;;;7.17;;
5297;SDS011;14738;42.668;23.250;2023-04-01T08:02:42;11.67;;;6.77;;
5297;SDS011;14738;42.668;23.250;2023-04-01T08:04:45;12.10;;;6.37;;
5297;SDS011;14738;42.668;23.250;2023-04-01T08:07:18;8.63;;;6.80;;
5297;SDS011;14738;42.668;23.250;2023-04-01T08:09:57;8.40;;;7.10;;
5297;SDS011;14738;42.668;23.250;2023-04-01T08:23:38;10.00;;;7.33;;
5297;SDS011;14738;42.668;23.250;2023-04-01T08:26:17;10.37;;;7.33;;
5297;SDS011;14738;42.668;23.250;2023-04-01T08:28:55;10.00;;;7.00;;
5297;SDS011;14738;42.668;23.250;2023-04-01T08:31:25;9.60;;;6.47;;
5297;SDS011;14738;42.668;23.250;2023-04-01T08:33:53;14.70;;;7.57;;
5297;SDS011;14738;42.668;23.250;2023-04-01T08:36:28;12.53;;;9.47;;
5297;SDS011;14738;42.668;23.250;2023-04-01T08:38:59;8.40;;;6.90;;
5297;SDS011;14738;42.668;23.250;2023-04-01T08:52:18;7.70;;;6.37;;
5297;SDS011;14738;42.668;23.250;2023-04-01T09:06:00;4.13;;;3.70;;
5297;SDS011;14738;42.668;23.250;2023-04-01T09:11:28;7.13;;;4.20;;
5297;SDS011;14738;42.668;23.250;2023-04-01T09:31:09;3.70;;;2.27;;
5297;SDS011;14738;42.668;23.250;2023-04-01T09:42:45;3.93;;;2.70;;
5297;SDS011;14738;42.668;23.250;2023-04-01T09:45:29;4.47;;;3.00;;
5297;SDS011;14738;42.668;23.250;2023-04-01T09:54:00;10.30;;;5.07;;
5297;SDS011;14738;42.668;23.250;2023-04-01T10:10:39;6.30;;;3.10;;
5297;SDS011;14738;42.668;23.250;2023-04-01T10:52:55;2.87;;;2.33;;
5297;SDS011;14738;42.668;23.250;2023-04-01T11:15:06;6.83;;;2.47;;
5297;SDS011;14738;42.668;23.250;2023-04-01T11:17:42;4.23;;;1.83;;
5297;SDS011;14738;42.668;23.250;2023-04-01T11:31:23;3.07;;;2.10;;
5297;SDS011;14738;42.668;23.250;2023-04-01T11:39:54;7.77;;;2.70;;
5297;SDS011;14738;42.668;23.250;2023-04-01T11:47:58;8.20;;;3.10;;
5297;SDS011;14738;42.668;23.250;2023-04-01T12:06:54;4.03;;;3.63;;
5297;SDS011;14738;42.668;23.250;2023-04-01T12:20:36;4.73;;;4.27;;
5297;SDS011;14738;42.668;23.250;2023-04-01T12:31:31;6.10;;;4.07;;
5297;SDS011;14738;42.668;23.250;2023-04-01T12:34:44;4.73;;;3.97;;
5297;SDS011;14738;42.668;23.250;2023-04-01T12:37:29;8.10;;;3.70;;
5297;SDS011;14738;42.668;23.250;2023-04-01T12:40:20;5.17;;;3.93;;
5297;SDS011;14738;42.668;23.250;2023-04-01T12:45:38;5.47;;;3.47;;
5297;SDS011;14738;42.668;23.250;2023-04-01T12:54:09;5.37;;;3.37;;
5297;SDS011;14738;42.668;23.250;2023-04-01T12:56:52;4.37;;;3.57;;
5297;SDS011;14738;42.668;23.250;2023-04-01T13:02:31;5.20;;;4.53;;
5297;SDS011;14738;42.668;23.250;2023-04-01T13:11:07;6.60;;;3.73;;
5297;SDS011;14738;42.668;23.250;2023-04-01T13:30:03;3.40;;;3.20;;
5297;SDS011;14738;42.668;23.250;2023-04-01T13:32:35;2.00;;;1.90;;
5297;SDS011;14738;42.668;23.250;2023-04-01T13:40:33;2.23;;;2.13;;
5297;SDS011;14738;42.668;23.250;2023-04-01T14:05:50;1.70;;;1.67;;
5297;SDS011;14738;42.668;23.250;2023-04-01T14:39:59;1.70;;;1.70;;
5297;SDS011;14738;42.668;23.250;2023-04-01T14:51:09;2.00;;;1.80;;
5297;SDS011;14738;42.668;23.250;2023-04-01T14:53:43;1.80;;;1.70;;
5297;SDS011;14738;42.668;23.250;2023-04-01T14:56:34;1.60;;;1.50;;
5297;SDS011;14738;42.668;23.250;2023-04-01T14:59:07;1.93;;;1.83;;
5297;SDS011;14738;42.668;23.250;2023-04-01T15:10:34;2.40;;;1.70;;
5297;SDS011;14738;42.668;23.250;2023-04-01T15:19:02;3.60;;;3.30;;
5297;SDS011;14738;42.668;23.250;2023-04-01T15:33:52;6.53;;;3.80;;
5297;SDS011;14738;42.668;23.250;2023-04-01T15:49:46;1.30;;;1.20;;
5297;SDS011;14738;42.668;23.250;2023-04-01T16:00:29;1.80;;;1.70;;
5297;SDS011;14738;42.668;23.250;2023-04-01T16:06:01;1.80;;;1.73;;
5297;SDS011;14738;42.668;23.250;2023-04-01T16:08:40;2.10;;;1.90;;
5297;SDS011;14738;42.668;23.250;2023-04-01T16:11:18;2.00;;;1.90;;
5297;SDS011;14738;42.668;23.250;2023-04-01T16:16:47;2.90;;;2.70;;
5297;SDS011;14738;42.668;23.250;2023-04-01T16:22:13;2.80;;;2.60;;
5297;SDS011;14738;42.668;23.250;2023-04-01T16:28:09;3.03;;;2.80;;
5297;SDS011;14738;42.668;23.250;2023-04-01T16:30:24;3.20;;;2.93;;
5297;SDS011;14738;42.668;23.250;2023-04-01T16:33:11;2.77;;;2.63;;
5297;SDS011;14738;42.668;23.250;2023-04-01T16:35:46;3.43;;;3.07;;
5297;SDS011;14738;42.668;23.250;2023-04-01T16:41:29;1.93;;;1.83;;
5297;SDS011;14738;42.668;23.250;2023-04-01T16:44:08;1.90;;;1.80;;
5297;SDS011;14738;42.668;23.250;2023-04-01T16:46:52;3.53;;;3.23;;
5297;SDS011;14738;42.668;23.250;2023-04-01T16:52:12;2.10;;;2.00;;
5297;SDS011;14738;42.668;23.250;2023-04-01T16:54:55;2.53;;;2.33;;
5297;SDS011;14738;42.668;23.250;2023-04-01T16:57:52;3.10;;;2.90;;
5297;SDS011;14738;42.668;23.250;2023-04-01T17:00:27;2.83;;;2.10;;
5297;SDS011;14738;42.668;23.250;2023-04-01T17:03:08;1.60;;;1.60;;
5297;SDS011;14738;42.668;23.250;2023-04-01T17:08:16;1.57;;;1.57;;
5297;SDS011;14738;42.668;23.250;2023-04-01T17:11:04;1.33;;;1.33;;
5297;SDS011;14738;42.668;23.250;2023-04-01T17:16:43;2.07;;;1.97;;
5297;SDS011;14738;42.668;23.250;2023-04-01T17:24:56;1.70;;;1.70;;
5297;SDS011;14738;42.668;23.250;2023-04-01T17:27:33;2.20;;;2.10;;
5297;SDS011;14738;42.668;23.250;2023-04-01T17:30:11;2.40;;;2.30;;
5297;SDS011;14738;42.668;23.250;2023-04-01T17:40:44;2.93;;;2.73;;
5297;SDS011;14738;42.668;23.250;2023-04-01T17:45:53;3.77;;;3.57;;
5297;SDS011;14738;42.668;23.250;2023-04-01T17:51:02;3.37;;;3.23;;
5297;SDS011;14738;42.668;23.250;2023-04-01T18:04:36;2.97;;;2.40;;
5297;SDS011;14738;42.668;23.250;2023-04-01T18:12:40;3.17;;;2.87;;
5297;SDS011;14738;42.668;23.250;2023-04-01T18:15:21;3.70;;;3.40;;
5297;SDS011;14738;42.668;23.250;2023-04-01T18:20:50;3.10;;;2.93;;
5297;SDS011;14738;42.668;23.250;2023-04-01T18:26:20;2.67;;;2.57;;
5297;SDS011;14738;42.668;23.250;2023-04-01T18:29:04;2.83;;;2.73;;
5297;SDS011;14738;42.668;23.250;2023-04-01T18:34:53;2.50;;;2.40;;
5297;SDS011;14738;42.668;23.250;2023-04-01T18:37:27;3.60;;;3.40;;
5297;SDS011;14738;42.668;23.250;2023-04-01T18:42:31;3.50;;;3.30;;
5297;SDS011;14738;42.668;23.250;2023-04-01T18:45:14;3.53;;;3.40;;
5297;SDS011;14738;42.668;23.250;2023-04-01T18:47:59;3.43;;;3.23;;
5297;SDS011;14738;42.668;23.250;2023-04-01T18:56:29;3.33;;;3.13;;
5297;SDS011;14738;42.668;23.250;2023-04-01T19:04:42;2.70;;;2.60;;
5297;SDS011;14738;42.668;23.250;2023-04-01T19:20:32;3.10;;;3.00;;
5297;SDS011;14738;42.668;23.250;2023-04-01T19:26:00;2.47;;;2.37;;
5297;SDS011;14738;42.668;23.250;2023-04-01T19:37:39;2.30;;;2.20;;
5297;SDS011;14738;42.668;23.250;2023-04-01T19:46:11;3.50;;;3.30;;
5297;SDS011;14738;42.668;23.250;2023-04-01T19:54:41;2.80;;;2.70;;
5297;SDS011;14738;42.668;23.250;2023-04-01T19:57:41;3.10;;;3.00;;
5297;SDS011;14738;42.668;23.250;2023-04-01T20:00:24;3.60;;;3.40;;
5297;SDS011;14738;42.668;23.250;2023-04-01T20:05:59;2.47;;;2.37;;
5297;SDS011;14738;42.668;23.250;2023-04-01T20:08:54;2.20;;;2.17;;
5297;SDS011;14738;42.668;23.250;2023-04-01T20:11:34;3.10;;;3.00;;
5297;SDS011;14738;42.668;23.250;2023-04-01T20:17:16;3.57;;;3.27;;
5297;SDS011;14738;42.668;23.250;2023-04-01T20:19:45;5.00;;;2.93;;
5297;SDS011;14738;42.668;23.250;2023-04-01T20:27:51;2.87;;;2.77;;
5297;SDS011;14738;42.668;23.250;2023-04-01T20:44:20;2.70;;;2.60;;
5297;SDS011;14738;42.668;23.250;2023-04-01T20:52:52;3.67;;;3.40;;
5297;SDS011;14738;42.668;23.250;2023-04-01T21:00:48;3.90;;;3.50;;
5297;SDS011;14738;42.668;23.250;2023-04-01T21:04:12;3.20;;;3.00;;
5297;SDS011;14738;42.668;23.250;2023-04-01T21:35:49;1.50;;;1.47;;
5297;SDS011;14738;42.668;23.250;2023-04-01T21:38:24;1.60;;;1.50;;
5297;SDS011;14738;42.668;23.250;2023-04-01T21:52:37;1.63;;;1.27;;
5297;SDS011;14738;42.668;23.250;2023-04-01T21:55:29;1.77;;;1.67;;
5297;SDS011;14738;42.668;23.250;2023-04-01T22:00:47;1.50;;;1.50;;
5297;SDS011;14738;42.668;23.250;2023-04-01T22:16:54;1.53;;;1.43;;
5297;SDS011;14738;42.668;23.250;2023-04-01T22:30:24;1.30;;;1.30;;
5297;SDS011;14738;42.668;23.250;2023-04-01T22:33:02;1.47;;;1.37;;
5297;SDS011;14738;42.668;23.250;2023-04-01T22:35:55;1.30;;;1.30;;
5297;SDS011;14738;42.668;23.250;2023-04-01T22:38:44;1.53;;;1.50;;
5297;SDS011;14738;42.668;23.250;2023-04-01T22:49:34;1.40;;;1.30;;
5297;SDS011;14738;42.668;23.250;2023-04-01T22:55:00;1.50;;;1.50;;
5297;SDS011;14738;42.668;23.250;2023-04-01T23:00:01;1.10;;;1.10;;
5297;SDS011;14738;42.668;23.250;2023-04-01T23:02:33;1.93;;;1.10;;
5297;SDS011;14738;42.668;23.250;2023-04-01T23:05:04;1.20;;;1.20;;
5297;SDS011;14738;42.668;23.250;2023-04-01T23:07:58;1.07;;;1.07;;
5297;SDS011;14738;42.668;23.250;2023-04-01T23:10:45;1.10;;;1.10;;
5297;SDS011;14738;42.668;23.250;2023-04-01T23:13:22;1.10;;;1.10;;
5297;SDS011;14738;42.668;23.250;2023-04-01T23:15:52;1.20;;;1.20;;
5297;SDS011;14738;42.668;23.250;2023-04-01T23:20:57;1.00;;;1.00;;
5297;SDS011;14738;42.668;23.250;2023-04-01T23:29:06;1.10;;;1.10;;
5297;SDS011;14738;42.668;23.250;2023-04-01T23:31:42;2.43;;;1.00;;
5297;SDS011;14738;42.668;23.250;2023-04-01T23:36:38;1.20;;;1.20;;
5297;SDS011;14738;42.668;23.250;2023-04-01T23:39:17;0.80;;;0.80;;
5297;SDS011;14738;42.668;23.250;2023-04-01T23:41:47;1.20;;;1.10;;
5297;SDS011;14738;42.668;23.250;2023-04-01T23:44:13;0.80;;;0.80;;
5297;SDS011;14738;42.668;23.250;2023-04-01T23:46:40;1.13;;;1.07;;
5297;SDS011;14738;42.668;23.250;2023-04-01T23:49:12;1.23;;;1.23;;
5297;SDS011;14738;42.668;23.250;2023-04-01T23:51:58;0.90;;;0.90;;
5297;SDS011;14738;42.668;23.250;2023-04-01T23:54:38;1.00;;;1.00;;
5297;SDS011;14738;42.668;23.250;2023-04-01T23:57:12;1.00;;;1.00;;
5297;SDS011;14738;42.668;23.250;2023-04-01T23:59:40;0.90;;;0.90;;
